Time;durP1;ratioP1;P1;durP2;ratioP2;P2;SDS_P1;SDS_P2;PMS_P1;PMS_P2;Temp;Humidity;BMP_temperature;BMP_pressure;BME280_temperature;BME280_humidity;BME280_pressure;Samples;Min_cycle;Max_cycle;Signal;HPM_P1;HPM_P2
2020/12/30 00:01:01;;;;;;;0.90;0.70;;;20.70;44.60;;;;;;6301118;28;20024;-59
2020/12/30 00:04:01;;;;;;;1.80;0.98;;;20.70;45.30;;;;;;6277031;28;20064;-59
2020/12/30 00:07:02;;;;;;;0.80;0.80;;;20.70;44.60;;;;;;6275500;28;20421;-59
2020/12/30 00:10:08;;;;;;;0.85;0.70;;;20.60;44.50;;;;;;6275481;28;20075;-60
2020/12/30 00:13:10;;;;;;;1.15;0.70;;;20.60;44.50;;;;;;6290088;28;20123;-59
2020/12/30 00:16:11;;;;;;;1.92;0.80;;;20.60;44.60;;;;;;6300372;28;20400;-59
2020/12/30 00:19:11;;;;;;;0.80;0.70;;;20.60;44.50;;;;;;6299923;28;20020;-59
2020/12/30 00:22:12;;;;;;;1.00;0.85;;;20.60;44.60;;;;;;6299677;28;20365;-59
2020/12/30 00:25:14;;;;;;;0.93;0.70;;;20.60;44.50;;;;;;6300019;28;20035;-58
2020/12/30 00:28:14;;;;;;;0.60;0.60;;;20.60;44.50;;;;;;6299921;28;20040;-59
2020/12/30 00:31:15;;;;;;;2.20;0.70;;;20.60;44.50;;;;;;6295926;28;20029;-59
2020/12/30 00:34:16;;;;;;;0.95;0.60;;;20.60;44.50;;;;;;6300152;28;20020;-58
2020/12/30 00:37:16;;;;;;;1.70;0.90;;;20.60;44.50;;;;;;6300454;28;20012;-59
2020/12/30 00:40:17;;;;;;;0.90;0.68;;;20.60;44.50;;;;;;6299418;28;20074;-58
2020/12/30 00:43:17;;;;;;;0.93;0.68;;;20.60;44.60;;;;;;6290760;28;20433;-58
2020/12/30 00:46:18;;;;;;;1.10;0.80;;;20.60;44.60;;;;;;6274802;28;20071;-59
2020/12/30 00:49:19;;;;;;;0.77;0.75;;;20.60;44.60;;;;;;6274431;28;20029;-59
2020/12/30 00:52:19;;;;;;;1.77;0.98;;;20.60;44.60;;;;;;6274509;28;20028;-60
2020/12/30 00:55:20;;;;;;;0.98;0.80;;;20.60;44.60;;;;;;6298476;28;20016;-60
2020/12/30 00:58:20;;;;;;;0.70;0.60;;;20.60;44.60;;;;;;6292024;28;20082;-60
2020/12/30 01:01:21;;;;;;;1.05;0.70;;;20.50;44.50;;;;;;6274757;28;20024;-59
2020/12/30 01:04:22;;;;;;;1.35;0.70;;;20.50;44.60;;;;;;6290508;28;20503;-60
2020/12/30 01:07:23;;;;;;;0.75;0.65;;;20.50;45.30;;;;;;6299498;28;20024;-59
2020/12/30 01:10:23;;;;;;;0.60;0.60;;;20.50;44.50;;;;;;6299210;28;20029;-59
2020/12/30 01:13:24;;;;;;;0.82;0.65;;;20.50;44.60;;;;;;6293337;28;20786;-60
2020/12/30 01:16:25;;;;;;;0.80;0.70;;;20.50;44.60;;;;;;6274584;28;20037;-59
2020/12/30 01:19:25;;;;;;;1.20;0.70;;;20.50;44.60;;;;;;6274506;28;20033;-57
2020/12/30 01:22:26;;;;;;;0.70;0.68;;;20.50;44.60;;;;;;6274275;28;20017;-60
2020/12/30 01:25:27;;;;;;;1.60;1.00;;;20.50;44.60;;;;;;6296191;28;20047;-59
2020/12/30 01:28:28;;;;;;;2.22;1.00;;;20.50;44.60;;;;;;6295951;28;20417;-58
2020/12/30 01:31:29;;;;;;;0.75;0.63;;;20.50;44.60;;;;;;6299158;28;20023;-60
2020/12/30 01:34:30;;;;;;;1.40;0.90;;;20.50;44.60;;;;;;6286560;28;20264;-60
2020/12/30 01:37:30;;;;;;;0.70;0.60;;;20.50;44.60;;;;;;6274385;28;20059;-59
2020/12/30 01:40:31;;;;;;;1.20;0.60;;;20.50;44.60;;;;;;6291823;28;20187;-61
2020/12/30 01:43:32;;;;;;;0.60;0.60;;;20.50;44.60;;;;;;6276980;28;20093;-57
2020/12/30 01:46:45;;;;;;;2.03;0.90;;;20.50;44.70;;;;;;6298975;28;20157;-55
2020/12/30 01:49:47;;;;;;;0.57;0.50;;;20.40;44.60;;;;;;6299213;28;20040;-54
2020/12/30 01:52:48;;;;;;;1.23;0.80;;;20.50;44.70;;;;;;6298831;28;20036;-57
2020/12/30 01:55:52;;;;;;;1.20;0.60;;;20.40;44.60;;;;;;6280196;28;20466;-57
2020/12/30 01:58:53;;;;;;;0.68;0.57;;;20.40;44.60;;;;;;6278061;28;20020;-57
2020/12/30 02:02:00;;;;;;;0.90;0.60;;;20.40;44.50;;;;;;6304535;28;20031;-57
2020/12/30 02:05:02;;;;;;;1.05;0.77;;;20.50;44.70;;;;;;6304588;28;20024;-56
2020/12/30 02:08:04;;;;;;;0.75;0.65;;;20.50;44.70;;;;;;6304800;28;20023;-60
2020/12/30 02:11:05;;;;;;;1.02;0.73;;;20.40;44.70;;;;;;6304109;28;20081;-55
2020/12/30 02:14:11;;;;;;;0.55;0.47;;;20.40;44.60;;;;;;6303762;28;20019;-59
2020/12/30 02:17:13;;;;;;;1.05;0.80;;;20.40;44.60;;;;;;6303761;28;20016;-60
2020/12/30 02:20:14;;;;;;;0.70;0.55;;;20.40;44.60;;;;;;6303936;28;20089;-56
2020/12/30 02:23:15;;;;;;;1.13;0.80;;;20.40;44.70;;;;;;6303514;28;20118;-59
2020/12/30 02:26:15;;;;;;;0.90;0.63;;;20.40;44.60;;;;;;6303713;28;20024;-58
2020/12/30 02:29:16;;;;;;;1.00;0.73;;;20.40;44.60;;;;;;6303323;28;20085;-57
2020/12/30 02:32:16;;;;;;;0.60;0.60;;;20.40;44.60;;;;;;6303497;28;20395;-59
2020/12/30 02:35:22;;;;;;;0.75;0.57;;;20.40;44.70;;;;;;6303169;28;20016;-59
2020/12/30 02:38:23;;;;;;;1.15;0.70;;;20.40;44.80;;;;;;6303222;28;20248;-56
2020/12/30 02:41:24;;;;;;;1.00;0.75;;;20.40;44.70;;;;;;6303641;28;20028;-58
2020/12/30 02:44:25;;;;;;;0.80;0.68;;;20.40;44.80;;;;;;6303166;28;20039;-60
2020/12/30 02:47:26;;;;;;;1.00;0.80;;;20.30;44.60;;;;;;6303294;28;20025;-59
2020/12/30 02:50:27;;;;;;;0.85;0.60;;;20.40;44.70;;;;;;6302977;28;20055;-59
2020/12/30 02:53:27;;;;;;;0.90;0.70;;;20.40;44.70;;;;;;6302784;28;20012;-59
2020/12/30 02:56:28;;;;;;;0.98;0.73;;;20.40;44.70;;;;;;6303001;28;20077;-60
2020/12/30 02:59:28;;;;;;;0.80;0.50;;;20.30;44.60;;;;;;6302982;28;20020;-58
2020/12/30 03:02:29;;;;;;;0.70;0.50;;;20.30;44.70;;;;;;6302978;28;20023;-59
2020/12/30 03:05:29;;;;;;;1.13;0.80;;;20.40;44.80;;;;;;6302443;28;20024;-57
2020/12/30 03:08:31;;;;;;;0.68;0.52;;;20.30;44.60;;;;;;6302611;28;20020;-56
2020/12/30 03:11:31;;;;;;;1.08;0.70;;;20.30;45.30;;;;;;6301613;28;20016;-61
2020/12/30 03:14:32;;;;;;;0.77;0.65;;;20.30;44.70;;;;;;6302408;28;20465;-60
2020/12/30 03:17:32;;;;;;;0.82;0.60;;;20.30;44.70;;;;;;6302634;28;20473;-59
2020/12/30 03:20:33;;;;;;;0.63;0.60;;;20.30;44.80;;;;;;6302383;28;20016;-59
2020/12/30 03:23:33;;;;;;;1.00;0.50;;;20.30;44.60;;;;;;6302003;28;20066;-60
2020/12/30 03:26:35;;;;;;;1.08;0.60;;;20.30;44.70;;;;;;6302126;28;20031;-60
2020/12/30 03:29:35;;;;;;;0.98;0.60;;;20.30;44.70;;;;;;6302290;28;20032;-59
2020/12/30 03:32:37;;;;;;;0.40;0.40;;;20.30;44.80;;;;;;6302402;28;20557;-60
2020/12/30 03:35:37;;;;;;;1.10;0.60;;;20.30;44.80;;;;;;6301780;28;20528;-60
2020/12/30 03:38:38;;;;;;;0.50;0.50;;;20.30;44.70;;;;;;6301906;28;20050;-60
2020/12/30 03:41:38;;;;;;;1.27;0.63;;;20.30;44.70;;;;;;6301575;28;20041;-58
2020/12/30 03:44:39;;;;;;;1.42;0.60;;;20.30;44.70;;;;;;6301695;28;20028;-57
2020/12/30 03:47:39;;;;;;;0.98;0.70;;;20.30;44.70;;;;;;6301619;28;20669;-60
2020/12/30 03:50:40;;;;;;;0.95;0.70;;;20.30;45.40;;;;;;6301581;28;20020;-59
2020/12/30 03:53:40;;;;;;;0.68;0.65;;;20.30;44.70;;;;;;6319662;28;20035;-60
2020/12/30 03:56:41;;;;;;;0.98;0.68;;;20.30;44.80;;;;;;6301350;28;20020;-59
2020/12/30 03:59:42;;;;;;;0.95;0.60;;;20.30;44.80;;;;;;6301339;28;20020;-60
2020/12/30 04:02:42;;;;;;;0.60;0.50;;;20.30;44.80;;;;;;6301093;28;20026;-60
2020/12/30 04:05:43;;;;;;;0.77;0.60;;;20.30;44.80;;;;;;6301074;28;20374;-58
2020/12/30 04:08:43;;;;;;;0.63;0.50;;;20.30;44.80;;;;;;6301134;28;20013;-60
2020/12/30 04:11:44;;;;;;;1.00;0.68;;;20.30;44.80;;;;;;6302525;28;20032;-60
2020/12/30 04:14:45;;;;;;;0.65;0.60;;;20.30;44.80;;;;;;6304050;28;20031;-59
2020/12/30 04:17:45;;;;;;;0.70;0.60;;;20.30;44.80;;;;;;6303868;28;20043;-58
2020/12/30 04:20:46;;;;;;;1.52;0.73;;;20.30;44.80;;;;;;6304287;28;20105;-60
2020/12/30 04:23:48;;;;;;;0.63;0.57;;;20.30;44.80;;;;;;6300819;28;20447;-59
2020/12/30 04:26:48;;;;;;;1.00;0.73;;;20.20;44.80;;;;;;6300600;28;20036;-59
2020/12/30 04:29:49;;;;;;;0.65;0.55;;;20.20;44.70;;;;;;6300617;28;20039;-60
2020/12/30 04:32:49;;;;;;;0.75;0.50;;;20.20;44.70;;;;;;6300445;28;20021;-58
2020/12/30 04:35:50;;;;;;;0.80;0.65;;;20.20;44.80;;;;;;6300765;28;20052;-59
2020/12/30 04:38:50;;;;;;;0.43;0.43;;;20.20;44.70;;;;;;6300410;28;20027;-61
2020/12/30 04:41:52;;;;;;;0.45;0.43;;;20.20;44.80;;;;;;6300122;28;20036;-59
2020/12/30 04:44:54;;;;;;;0.60;0.50;;;20.30;44.80;;;;;;6300614;28;20115;-60
2020/12/30 04:47:57;;;;;;;0.82;0.70;;;20.20;44.70;;;;;;6300263;28;20039;-58
2020/12/30 04:50:58;;;;;;;0.70;0.45;;;20.30;44.80;;;;;;6300110;28;20091;-59
2020/12/30 04:54:00;;;;;;;0.93;0.50;;;20.20;44.80;;;;;;6318692;28;20012;-59
2020/12/30 04:57:04;;;;;;;0.57;0.57;;;20.20;44.70;;;;;;6300187;28;20098;-59
2020/12/30 05:00:05;;;;;;;0.40;0.40;;;20.20;44.80;;;;;;6300282;28;20464;-57
2020/12/30 05:03:07;;;;;;;0.60;0.45;;;20.20;44.80;;;;;;6299837;28;20032;-60
2020/12/30 05:06:08;;;;;;;0.55;0.45;;;20.20;44.70;;;;;;6299919;28;20024;-59
2020/12/30 05:09:09;;;;;;;1.38;0.60;;;20.20;44.80;;;;;;6299691;28;20067;-59
2020/12/30 05:12:11;;;;;;;0.47;0.47;;;20.20;44.60;;;;;;6299796;28;20038;-60
2020/12/30 05:15:12;;;;;;;0.52;0.50;;;20.30;44.60;;;;;;6299863;28;20065;-60
2020/12/30 05:18:12;;;;;;;0.50;0.50;;;20.30;44.60;;;;;;6299539;28;20288;-59
2020/12/30 05:21:13;;;;;;;0.60;0.45;;;20.30;44.60;;;;;;6300077;28;20051;-56
2020/12/30 05:24:14;;;;;;;1.30;0.50;;;20.30;44.60;;;;;;6299725;28;20028;-59
2020/12/30 05:27:16;;;;;;;0.50;0.50;;;20.30;44.60;;;;;;6299780;28;20035;-59
2020/12/30 05:30:16;;;;;;;1.58;0.60;;;20.30;44.70;;;;;;6299457;28;20024;-60
2020/12/30 05:33:17;;;;;;;0.50;0.40;;;20.40;44.80;;;;;;6299441;28;20077;-56
2020/12/30 05:36:18;;;;;;;0.57;0.40;;;20.30;44.70;;;;;;6302729;28;20020;-60
2020/12/30 05:39:29;;;;;;;0.75;0.50;;;20.40;44.80;;;;;;6304589;28;20024;-59
2020/12/30 05:42:29;;;;;;;1.15;0.60;;;20.40;44.90;;;;;;6304381;28;20071;-60
2020/12/30 05:45:30;;;;;;;0.57;0.50;;;20.40;44.90;;;;;;6304207;28;20031;-59
2020/12/30 05:48:34;;;;;;;1.17;0.40;;;20.40;45.00;;;;;;6304110;28;20384;-59
2020/12/30 05:51:34;;;;;;;0.90;0.60;;;20.30;44.90;;;;;;6304253;28;20514;-59
2020/12/30 05:54:35;;;;;;;0.68;0.47;;;20.40;45.00;;;;;;6304177;28;20017;-59
2020/12/30 05:57:37;;;;;;;0.57;0.40;;;20.40;45.00;;;;;;6304286;28;20021;-61
2020/12/30 06:00:37;;;;;;;0.80;0.60;;;20.40;45.10;;;;;;6304115;28;20020;-59
2020/12/30 06:03:38;;;;;;;0.70;0.43;;;20.40;45.10;;;;;;6304137;28;20511;-59
2020/12/30 06:06:42;;;;;;;0.50;0.50;;;20.40;45.10;;;;;;6304009;28;20028;-59
2020/12/30 06:09:52;;;;;;;0.60;0.60;;;20.40;44.70;;;;;;6303623;28;20027;-60
2020/12/30 06:12:55;;;;;;;0.45;0.45;;;20.60;44.60;;;;;;6303677;28;20497;-60
2020/12/30 06:16:05;;;;;;;0.70;0.57;;;20.60;44.60;;;;;;6303701;28;20025;-56
2020/12/30 06:19:06;;;;;;;0.93;0.57;;;20.80;44.60;;;;;;6321687;28;20028;-59
2020/12/30 06:22:11;;;;;;;0.60;0.57;;;20.80;44.60;;;;;;6303193;28;20031;-58
2020/12/30 06:25:13;;;;;;;0.73;0.50;;;20.90;44.60;;;;;;6303453;28;20051;-59
2020/12/30 06:28:18;;;;;;;0.60;0.50;;;20.90;44.60;;;;;;6303721;28;20043;-59
2020/12/30 06:31:19;;;;;;;0.47;0.40;;;21.00;44.70;;;;;;6302911;28;20032;-58
2020/12/30 06:34:20;;;;;;;6.18;0.95;;;21.00;44.70;;;;;;6300478;28;20022;-60
2020/12/30 06:37:32;;;;;;;6.95;0.80;;;21.00;44.30;;;;;;6300741;28;20327;-61
2020/12/30 06:40:35;;;;;;;10.20;0.68;;;21.20;44.10;;;;;;6301224;28;20043;-62
2020/12/30 06:43:46;;;;;;;5.55;0.60;;;21.40;44.40;;;;;;6300837;28;20028;-61
2020/12/30 06:46:47;;;;;;;3.55;0.60;;;21.40;44.50;;;;;;6299315;28;20080;-63
2020/12/30 06:49:47;;;;;;;4.60;0.70;;;21.60;44.40;;;;;;6299797;28;20482;-61
2020/12/30 06:52:48;;;;;;;1.75;0.60;;;21.70;43.90;;;;;;6278966;28;20343;-61
2020/12/30 06:55:48;;;;;;;1.40;0.73;;;21.80;44.10;;;;;;6287210;28;20404;-64
2020/12/30 06:58:50;;;;;;;3.95;0.70;;;21.80;44.10;;;;;;6282860;28;20520;-62
2020/12/30 07:01:54;;;;;;;1.27;0.52;;;21.80;44.20;;;;;;6316772;28;20468;-66
2020/12/30 07:05:01;;;;;;;1.55;0.65;;;21.90;44.30;;;;;;6301687;28;20035;-60
2020/12/30 07:08:01;;;;;;;1.33;0.63;;;22.00;44.00;;;;;;6301138;28;20129;-61
2020/12/30 07:11:02;;;;;;;0.80;0.50;;;22.10;43.90;;;;;;6312539;28;20046;-62
2020/12/30 07:14:33;;;;;;;1.88;0.65;;;22.10;43.90;;;;;;6300799;28;20114;-60
2020/12/30 07:17:35;;;;;;;5.38;0.60;;;22.20;43.70;;;;;;6273252;28;20038;-58
2020/12/30 07:20:40;;;;;;;0.57;0.40;;;22.10;43.90;;;;;;6275838;28;20146;-59
2020/12/30 07:23:45;;;;;;;3.70;0.60;;;22.10;43.60;;;;;;6276871;28;20070;-57
2020/12/30 07:26:47;;;;;;;2.63;0.60;;;22.10;44.10;;;;;;6300356;28;20492;-58
2020/12/30 07:29:49;;;;;;;0.88;0.50;;;22.10;43.80;;;;;;6300556;28;20028;-59
2020/12/30 07:32:52;;;;;;;6.22;0.60;;;22.10;43.80;;;;;;6300453;28;20057;-59
2020/12/30 07:36:02;;;;;;;2.22;0.57;;;22.10;43.90;;;;;;6300543;28;20106;-60
2020/12/30 07:39:03;;;;;;;0.55;0.43;;;22.10;43.90;;;;;;6300392;28;20362;-55
2020/12/30 07:42:10;;;;;;;1.25;0.43;;;22.10;44.00;;;;;;6300591;28;20035;-56
2020/12/30 07:45:11;;;;;;;1.48;0.47;;;22.10;43.80;;;;;;6299984;28;20042;-55
2020/12/30 07:48:11;;;;;;;1.05;0.60;;;22.10;43.90;;;;;;6300598;28;20129;-54
2020/12/30 07:51:13;;;;;;;0.60;0.50;;;22.20;43.90;;;;;;6298094;28;20480;-57
2020/12/30 07:54:16;;;;;;;1.30;0.50;;;22.20;43.80;;;;;;6300059;28;20020;-58
2020/12/30 07:57:18;;;;;;;0.35;0.35;;;22.20;44.00;;;;;;6300055;28;20016;-53
2020/12/30 08:00:18;;;;;;;1.15;0.60;;;22.10;43.90;;;;;;6292154;28;20427;-56
2020/12/30 08:03:21;;;;;;;1.15;0.68;;;22.10;43.80;;;;;;6285344;28;20029;-58
2020/12/30 08:06:21;;;;;;;1.55;0.75;;;22.10;43.90;;;;;;6292108;28;20121;-58
2020/12/30 08:09:30;;;;;;;1.95;0.68;;;22.10;44.00;;;;;;6274921;28;20036;-61
2020/12/30 08:12:31;;;;;;;1.92;0.80;;;22.00;44.30;;;;;;6295862;28;20398;-65
2020/12/30 08:15:31;;;;;;;9.05;0.60;;;22.00;44.30;;;;;;6298070;28;20052;-56
2020/12/30 08:18:32;;;;;;;3.80;0.50;;;22.00;44.10;;;;;;6290055;28;20021;-61
2020/12/30 08:21:32;;;;;;;2.85;0.88;;;22.10;44.40;;;;;;6280311;28;20025;-55
2020/12/30 08:24:38;;;;;;;3.60;0.70;;;22.10;44.10;;;;;;6274345;28;20027;-57
2020/12/30 08:27:40;;;;;;;2.58;0.52;;;22.10;44.20;;;;;;6279538;28;20032;-58
2020/12/30 08:30:43;;;;;;;2.58;0.70;;;22.20;44.10;;;;;;6301629;28;20028;-60
2020/12/30 08:33:47;;;;;;;3.03;0.80;;;22.20;43.80;;;;;;6291521;28;20020;-60
2020/12/30 08:36:55;;;;;;;4.97;0.73;;;22.20;43.70;;;;;;6292715;28;20028;-60
2020/12/30 08:40:03;;;;;;;1.27;0.57;;;22.20;43.70;;;;;;6273598;28;20082;-54
2020/12/30 08:43:23;;;;;;;2.97;0.70;;;22.20;43.90;;;;;;6288249;28;20111;-60
2020/12/30 08:46:25;;;;;;;7.53;0.93;;;22.20;44.00;;;;;;6285597;28;20052;-60
2020/12/30 08:49:27;;;;;;;2.03;0.68;;;22.20;43.90;;;;;;6304630;28;20024;-60
2020/12/30 08:52:27;;;;;;;2.55;0.68;;;22.20;43.80;;;;;;6301013;28;20253;-61
2020/12/30 08:55:28;;;;;;;4.45;1.33;;;22.20;44.00;;;;;;6285649;28;20026;-61
2020/12/30 08:58:28;;;;;;;4.43;1.38;;;22.00;41.90;;;;;;6300733;28;20033;-60
2020/12/30 09:01:30;;;;;;;2.70;0.98;;;22.00;41.40;;;;;;6292984;28;20031;-59
2020/12/30 09:04:30;;;;;;;6.00;1.08;;;22.10;41.60;;;;;;6298204;28;20028;-59
2020/12/30 09:07:31;;;;;;;9.25;0.93;;;22.10;41.90;;;;;;6289619;28;20530;-60
2020/12/30 09:10:33;;;;;;;3.33;0.90;;;22.20;42.00;;;;;;6275760;28;20033;-65
2020/12/30 09:13:33;;;;;;;2.15;1.10;;;22.20;41.90;;;;;;6307321;28;20328;-62
2020/12/30 09:16:34;;;;;;;3.40;1.00;;;22.10;42.30;;;;;;6299486;28;20078;-66
2020/12/30 09:19:34;;;;;;;4.70;1.40;;;22.10;42.50;;;;;;6294529;28;20026;-61
2020/12/30 09:22:35;;;;;;;8.20;0.93;;;22.00;42.70;;;;;;6311470;28;20031;-63
2020/12/30 09:25:38;;;;;;;2.55;0.88;;;22.10;42.70;;;;;;6294294;28;20503;-64
2020/12/30 09:28:39;;;;;;;2.97;0.90;;;22.00;42.80;;;;;;6282255;28;20405;-62
2020/12/30 09:31:39;;;;;;;3.13;0.88;;;22.00;43.10;;;;;;6285892;28;20039;-62
2020/12/30 09:34:40;;;;;;;1.85;0.90;;;21.90;43.20;;;;;;6301899;28;20210;-62
2020/12/30 09:37:53;;;;;;;1.17;0.75;;;21.80;43.50;;;;;;6302881;28;20099;-59
2020/12/30 09:40:55;;;;;;;5.13;0.85;;;21.80;43.80;;;;;;6280072;28;20029;-60
2020/12/30 09:43:55;;;;;;;1.52;0.80;;;21.80;43.80;;;;;;6289289;28;20484;-62
2020/12/30 09:46:56;;;;;;;2.97;0.80;;;21.70;43.80;;;;;;6291158;28;20028;-61
2020/12/30 09:49:56;;;;;;;1.40;0.65;;;21.70;43.90;;;;;;6290957;28;20024;-62
2020/12/30 09:52:59;;;;;;;1.40;0.70;;;21.70;44.00;;;;;;6289208;28;20028;-68
2020/12/30 09:56:00;;;;;;;4.82;1.25;;;21.70;43.60;;;;;;6298061;28;20059;-56
2020/12/30 09:59:02;;;;;;;4.57;0.70;;;21.80;43.70;;;;;;6287430;28;20024;-63
2020/12/30 10:02:03;;;;;;;12.70;1.08;;;21.90;43.70;;;;;;6298896;28;20036;-62
2020/12/30 10:05:03;;;;;;;7.15;0.98;;;22.10;43.40;;;;;;6279325;28;20024;-64
2020/12/30 10:08:04;;;;;;;7.50;1.27;;;22.10;43.10;;;;;;6286474;28;20020;-64
2020/12/30 10:11:04;;;;;;;8.32;1.50;;;22.10;43.40;;;;;;6289279;28;20397;-61
2020/12/30 10:14:05;;;;;;;15.68;1.48;;;22.00;43.50;;;;;;6294340;28;20024;-64
2020/12/30 10:17:09;;;;;;;5.65;1.38;;;22.10;44.00;;;;;;6300556;28;20110;-65
2020/12/30 10:20:11;;;;;;;22.20;2.33;;;22.00;44.30;;;;;;6284135;28;20448;-62
2020/12/30 10:23:12;;;;;;;13.68;1.33;;;22.10;44.10;;;;;;6291931;28;20489;-66
2020/12/30 10:26:12;;;;;;;12.32;1.08;;;22.30;43.80;;;;;;6277288;28;20028;-61
2020/12/30 10:29:13;;;;;;;21.08;2.22;;;22.50;43.40;;;;;;6294130;28;20056;-61
2020/12/30 10:32:13;;;;;;;10.40;1.48;;;22.50;43.10;;;;;;6295761;28;20456;-63
2020/12/30 10:35:14;;;;;;;20.63;1.50;;;22.30;43.20;;;;;;6283894;28;20059;-61
2020/12/30 10:38:14;;;;;;;28.08;2.10;;;22.20;43.10;;;;;;6276854;28;20033;-62
2020/12/30 10:41:16;;;;;;;24.30;1.92;;;22.10;43.10;;;;;;6302334;28;20039;-62
2020/12/30 10:44:16;;;;;;;12.40;1.27;;;22.20;43.30;;;;;;6288496;28;20047;-63
2020/12/30 10:47:17;;;;;;;24.50;2.65;;;22.10;43.60;;;;;;6302230;28;20024;-60
2020/12/30 10:50:17;;;;;;;19.58;2.85;;;22.00;41.80;;;;;;6302942;28;20064;-62
2020/12/30 10:53:18;;;;;;;7.20;1.63;;;21.60;39.30;;;;;;6300792;28;20140;-63
2020/12/30 10:56:18;;;;;;;3.83;1.60;;;21.70;40.80;;;;;;6299765;28;20105;-62
2020/12/30 10:59:20;;;;;;;10.18;1.30;;;21.90;41.40;;;;;;6299598;28;20016;-59
2020/12/30 11:02:20;;;;;;;5.13;1.50;;;22.00;40.70;;;;;;6297876;28;20332;-62
2020/12/30 11:05:21;;;;;;;6.43;2.38;;;22.00;41.30;;;;;;6295607;28;20354;-62
2020/12/30 11:08:21;;;;;;;4.32;1.50;;;22.00;40.50;;;;;;6317132;28;20020;-61
2020/12/30 11:11:22;;;;;;;6.78;1.23;;;22.10;42.00;;;;;;6297070;28;20024;-63
2020/12/30 11:14:24;;;;;;;4.95;1.52;;;22.00;41.60;;;;;;6293752;28;20432;-62
2020/12/30 11:17:25;;;;;;;3.47;0.90;;;22.00;41.80;;;;;;6300621;28;20028;-59
2020/12/30 11:20:25;;;;;;;8.55;1.65;;;22.00;42.10;;;;;;6285264;28;20523;-61
2020/12/30 11:23:26;;;;;;;12.93;1.30;;;22.00;42.00;;;;;;6299406;28;20024;-56
2020/12/30 11:26:26;;;;;;;8.00;1.25;;;22.00;41.80;;;;;;6297568;28;20028;-60
2020/12/30 11:29:27;;;;;;;6.32;1.40;;;22.00;42.40;;;;;;6300598;28;20036;-69
2020/12/30 11:32:27;;;;;;;8.13;1.42;;;22.10;42.60;;;;;;6297190;28;20032;-57
2020/12/30 11:35:28;;;;;;;4.55;1.50;;;22.00;42.50;;;;;;6292718;28;20016;-62
2020/12/30 11:38:29;;;;;;;6.82;1.40;;;22.00;42.30;;;;;;6288489;28;20034;-62
2020/12/30 11:41:29;;;;;;;3.70;1.30;;;22.00;42.00;;;;;;6278057;28;20025;-68
2020/12/30 11:44:30;;;;;;;3.53;1.25;;;22.00;42.20;;;;;;6275102;28;20163;-59
2020/12/30 11:47:31;;;;;;;4.93;1.77;;;22.00;41.60;;;;;;6298908;28;20069;-67
2020/12/30 11:50:33;;;;;;;4.85;1.00;;;22.10;42.60;;;;;;6310813;28;20048;-69
2020/12/30 11:53:33;;;;;;;5.03;1.40;;;22.00;42.20;;;;;;6298790;28;20530;-55
2020/12/30 11:56:34;;;;;;;5.13;0.93;;;22.00;43.00;;;;;;6297961;28;20051;-61
2020/12/30 11:59:35;;;;;;;2.60;1.02;;;22.00;42.70;;;;;;6298525;28;20036;-68
2020/12/30 12:02:36;;;;;;;2.13;1.02;;;22.10;43.10;;;;;;6298979;28;20383;-63
2020/12/30 12:05:36;;;;;;;5.55;1.20;;;22.10;43.20;;;;;;6274826;28;20034;-57
2020/12/30 12:08:37;;;;;;;9.35;1.30;;;22.00;42.90;;;;;;6276526;28;20040;-63
2020/12/30 12:11:37;;;;;;;15.82;1.98;;;22.00;43.40;;;;;;6282666;28;20123;-60
2020/12/30 12:14:38;;;;;;;19.98;1.45;;;22.00;43.40;;;;;;6315698;28;20020;-64
2020/12/30 12:17:38;;;;;;;8.38;1.38;;;22.10;43.60;;;;;;6274488;28;20020;-63
2020/12/30 12:20:39;;;;;;;12.23;1.60;;;22.00;43.70;;;;;;6281455;28;20032;-66
2020/12/30 12:23:39;;;;;;;4.30;1.05;;;22.10;43.70;;;;;;6297847;28;20031;-64
2020/12/30 12:26:40;;;;;;;3.97;1.25;;;22.10;43.70;;;;;;6303679;28;20024;-69
2020/12/30 12:29:47;;;;;;;2.85;1.10;;;22.10;43.70;;;;;;6274499;28;20389;-64
2020/12/30 12:32:47;;;;;;;5.65;0.95;;;22.10;43.70;;;;;;6273026;28;20032;-61
2020/12/30 12:35:48;;;;;;;6.38;1.40;;;22.10;43.80;;;;;;6278997;28;20027;-67
2020/12/30 12:38:48;;;;;;;15.25;1.50;;;22.10;43.70;;;;;;6296778;28;20054;-66
2020/12/30 12:41:53;;;;;;;14.25;1.35;;;22.20;43.50;;;;;;6297118;28;20064;-62
2020/12/30 12:44:54;;;;;;;26.77;1.95;;;22.20;43.60;;;;;;6298144;28;20115;-64
2020/12/30 12:47:54;;;;;;;8.15;1.13;;;22.20;43.60;;;;;;6279934;28;20444;-65
2020/12/30 12:50:55;;;;;;;18.25;1.38;;;22.10;43.80;;;;;;6299055;28;20031;-68
2020/12/30 12:53:55;;;;;;;17.08;1.60;;;22.10;43.70;;;;;;6298878;28;20028;-59
2020/12/30 12:57:01;;;;;;;10.35;1.30;;;22.10;43.80;;;;;;6298319;28;20032;-62
2020/12/30 13:00:04;;;;;;;12.70;1.45;;;22.10;43.40;;;;;;6296132;28;20035;-66
2020/12/30 13:03:04;;;;;;;48.45;3.20;;;22.10;43.60;;;;;;6289952;28;20557;-60
2020/12/30 13:06:05;;;;;;;24.52;2.47;;;22.20;43.60;;;;;;6295751;28;20086;-66
2020/12/30 13:09:06;;;;;;;11.27;1.33;;;22.20;43.60;;;;;;6276606;28;20044;-64
2020/12/30 13:12:06;;;;;;;10.27;1.23;;;22.10;43.70;;;;;;6288816;28;20052;-64
2020/12/30 13:15:07;;;;;;;17.05;1.60;;;22.10;43.90;;;;;;6293856;28;20024;-62
2020/12/30 13:18:07;;;;;;;28.52;1.90;;;22.10;43.80;;;;;;6282869;28;20123;-62
2020/12/30 13:21:08;;;;;;;7.63;1.55;;;22.10;43.90;;;;;;6286608;28;20040;-62
2020/12/30 13:24:09;;;;;;;7.03;1.35;;;22.10;43.90;;;;;;6286010;28;20028;-63
2020/12/30 13:27:10;;;;;;;18.20;1.65;;;22.20;43.80;;;;;;6293613;28;20083;-62
2020/12/30 13:30:10;;;;;;;7.95;1.30;;;22.20;43.70;;;;;;6277774;28;20032;-64
2020/12/30 13:33:11;;;;;;;65.38;4.63;;;22.30;43.60;;;;;;6276038;28;20119;-67
2020/12/30 13:36:11;;;;;;;14.75;1.40;;;22.20;43.70;;;;;;6316409;28;20031;-63
2020/12/30 13:39:12;;;;;;;13.15;1.38;;;22.20;43.70;;;;;;6288382;28;20504;-62
2020/12/30 13:42:13;;;;;;;11.50;1.60;;;22.20;43.90;;;;;;6292539;28;20030;-66
2020/12/30 13:45:14;;;;;;;12.55;1.63;;;22.20;44.00;;;;;;6281818;28;20440;-62
2020/12/30 13:48:14;;;;;;;8.95;1.33;;;22.20;43.70;;;;;;6298086;28;20127;-63
2020/12/30 13:51:18;;;;;;;6.03;1.30;;;22.20;43.60;;;;;;6288518;28;20039;-65
2020/12/30 13:54:19;;;;;;;70.25;4.00;;;22.30;43.80;;;;;;6297602;28;20048;-60
2020/12/30 13:57:20;;;;;;;21.15;1.63;;;22.20;43.90;;;;;;6295348;28;20512;-62
2020/12/30 14:00:21;;;;;;;29.45;2.03;;;22.20;43.60;;;;;;6296616;28;20024;-64
2020/12/30 14:03:21;;;;;;;16.27;1.77;;;22.20;44.10;;;;;;6287549;28;20020;-66
2020/12/30 14:06:23;;;;;;;11.60;1.55;;;22.20;44.20;;;;;;6300240;28;20035;-64
2020/12/30 14:09:24;;;;;;;11.95;1.40;;;22.10;44.10;;;;;;6299002;28;20024;-64
2020/12/30 14:12:25;;;;;;;8.23;1.95;;;22.10;44.10;;;;;;6305597;28;20418;-61
2020/12/30 14:15:25;;;;;;;12.70;2.00;;;22.10;44.10;;;;;;6298950;28;20051;-61
2020/12/30 14:18:26;;;;;;;7.35;1.40;;;22.00;44.10;;;;;;6307439;28;20028;-58
2020/12/30 14:21:26;;;;;;;8.07;1.42;;;22.00;44.30;;;;;;6279488;28;20070;-60
2020/12/30 14:24:27;;;;;;;5.47;1.20;;;22.00;44.30;;;;;;6277614;28;20070;-60
2020/12/30 14:27:27;;;;;;;15.27;1.42;;;22.00;44.30;;;;;;6286729;28;20387;-58
2020/12/30 14:30:28;;;;;;;3.90;1.30;;;22.00;44.30;;;;;;6279980;28;20493;-62
2020/12/30 14:33:29;;;;;;;8.52;1.50;;;22.00;44.40;;;;;;6284108;28;20022;-62
2020/12/30 14:36:30;;;;;;;4.25;1.00;;;22.00;44.30;;;;;;6300051;28;20028;-61
2020/12/30 14:39:31;;;;;;;5.10;1.20;;;22.00;44.30;;;;;;6296620;28;20047;-62
2020/12/30 14:42:32;;;;;;;4.47;1.30;;;21.90;44.20;;;;;;6290147;28;20017;-60
2020/12/30 14:45:33;;;;;;;3.20;0.77;;;21.90;44.30;;;;;;6299494;28;20024;-62
2020/12/30 14:48:33;;;;;;;2.53;1.00;;;21.90;44.30;;;;;;6296345;28;20028;-63
2020/12/30 14:51:34;;;;;;;7.22;0.95;;;21.90;44.20;;;;;;6294467;28;20361;-62
2020/12/30 14:54:35;;;;;;;2.53;1.00;;;21.90;44.30;;;;;;6301142;28;20097;-62
2020/12/30 14:57:35;;;;;;;3.53;1.10;;;22.00;44.30;;;;;;6301274;28;20030;-63
2020/12/30 15:00:36;;;;;;;4.63;1.20;;;21.90;44.20;;;;;;6290715;28;20031;-63
2020/12/30 15:03:36;;;;;;;3.47;1.08;;;21.90;44.30;;;;;;6295910;28;20032;-62
2020/12/30 15:06:37;;;;;;;3.47;1.15;;;21.90;44.20;;;;;;6291289;28;20390;-63
2020/12/30 15:09:38;;;;;;;1.83;0.73;;;21.90;44.30;;;;;;6287601;28;20116;-61
2020/12/30 15:12:39;;;;;;;2.58;0.80;;;22.00;44.30;;;;;;6302468;28;20374;-63
2020/12/30 15:15:39;;;;;;;1.50;0.75;;;22.00;44.30;;;;;;6287451;28;20031;-63
2020/12/30 15:18:40;;;;;;;1.67;0.70;;;22.00;44.20;;;;;;6293695;28;20013;-68
2020/12/30 15:21:40;;;;;;;8.48;1.10;;;22.00;44.20;;;;;;6275472;28;20090;-67
2020/12/30 15:24:41;;;;;;;5.50;1.00;;;22.00;44.10;;;;;;6278199;28;20162;-68
2020/12/30 15:27:41;;;;;;;3.28;1.17;;;22.00;44.30;;;;;;6301040;28;20089;-63
2020/12/30 15:30:42;;;;;;;2.55;1.10;;;22.00;43.90;;;;;;6290129;28;20381;-63
2020/12/30 15:33:42;;;;;;;3.53;0.80;;;22.00;44.50;;;;;;6300360;28;20062;-62
2020/12/30 15:36:43;;;;;;;11.48;1.55;;;22.00;44.20;;;;;;6285130;28;20021;-63
2020/12/30 15:39:43;;;;;;;8.90;0.80;;;22.10;44.20;;;;;;6296742;28;20016;-62
2020/12/30 15:42:44;;;;;;;8.35;0.90;;;22.10;44.30;;;;;;6291800;28;20503;-65